»·PEaware :: SKY424 KDLS-KMMV

SKY424 :: KDLS-KMMV

FLIGHT INFORMATION

Flight Status: Arrived
Operator:
Sky High Charters
More flights by this operator :: More flights under this callsign
Pilot: Ben H. (9170)
Aircraft: CESSNA 310
(C310)
More flights by this aircraft type
Origin: KDLS Columbia Gorge Regl/The Dalle
United States
Destination: KMMV McMinnville Mun
United States
More flights between these airports :: More routes between these airports
Route: DALLS1 LTJ V112 BTG V287 UBG
File this flight plan on PilotEdge
Remarks: SKY HIGH SCENARIO 5
Altitude:
(Current/Filed)
8,000ft
Speed:
(Current/Filed)
180kts
Departed: 01-Jan-19 03:23 PM
Arrived: 01-Jan-19 04:09 PM
Distance/Time
Traveled:
87nm/0:46
Distance/Time
To Go:
Arrived

Flight Plot

Page will automatically refresh every two minutes.

Flight plan parsing failed; only flown route is shown


Map Options




Map Legend


Flown Route
Filed Route
Departure Airport
Arrival Airport
Navaid (VOR, NDB)
Fix

Horizontal Profiles

Position Reports

Time Latitude Longitude Heading Altitude Ground
Speed
01-Jan-19 15:13 45.618358 -121.172025 327 216ft 0kts
01-Jan-19 15:14 45.618358 -121.172025 327 216ft 0kts
01-Jan-19 15:15 45.618358 -121.172025 327 216ft 0kts
01-Jan-19 15:16 45.618358 -121.172025 327 216ft 0kts
01-Jan-19 15:18 45.618364 -121.172030 329 216ft 1kts
01-Jan-19 15:19 45.616754 -121.169331 141 216ft 12kts
01-Jan-19 15:20 45.614797 -121.166024 144 216ft 13kts
01-Jan-19 15:21 45.612181 -121.163158 100 216ft 0kts
01-Jan-19 15:22 45.612181 -121.163158 100 216ft 0kts
01-Jan-19 15:23 45.619735 -121.169471 324 448ft 110kts
01-Jan-19 15:24 45.625050 -121.201820 165 2172ft 130kts
01-Jan-19 15:25 45.600533 -121.168542 123 4109ft 131kts
01-Jan-19 15:26 45.577393 -121.130486 135 6115ft 127kts
01-Jan-19 15:27 45.538478 -121.130809 181 6664ft 202kts
01-Jan-19 15:28 45.548947 -121.089549 333 6967ft 182kts
01-Jan-19 15:29 45.585121 -121.127210 13 8026ft 165kts
01-Jan-19 15:30 45.630775 -121.108842 0 8069ft 175kts
01-Jan-19 15:31 45.679652 -121.111749 5 8099ft 175kts
01-Jan-19 15:32 45.721283 -121.133885 292 7958ft 184kts
01-Jan-19 15:33 45.709826 -121.203283 270 8012ft 187kts
01-Jan-19 15:34 45.710356 -121.278062 276 8008ft 187kts
01-Jan-19 15:35 45.712350 -121.352264 276 8008ft 187kts
01-Jan-19 15:36 45.714371 -121.426261 276 8008ft 187kts
01-Jan-19 15:36 45.716043 -121.488457 276 8008ft 187kts
01-Jan-19 15:37 45.717967 -121.562052 276 8008ft 187kts
01-Jan-19 15:39 45.720183 -121.649214 276 8008ft 187kts
01-Jan-19 15:40 45.721452 -121.700533 275 8010ft 187kts
01-Jan-19 15:40 45.722967 -121.762629 275 7975ft 187kts
01-Jan-19 15:42 45.725003 -121.848710 275 7993ft 184kts
01-Jan-19 15:42 45.726502 -121.909685 275 8004ft 182kts
01-Jan-19 15:43 45.728989 -121.980732 276 8008ft 181kts
01-Jan-19 15:45 45.732964 -122.063100 277 8008ft 181kts
01-Jan-19 15:45 45.736587 -122.122947 278 8008ft 181kts
01-Jan-19 15:46 45.741694 -122.193935 279 8008ft 181kts
01-Jan-19 15:47 45.747714 -122.265128 280 8008ft 181kts
01-Jan-19 15:48 45.753170 -122.336546 256 7982ft 186kts
01-Jan-19 15:49 45.732894 -122.404552 259 8003ft 185kts
01-Jan-19 15:50 45.733705 -122.475489 281 8010ft 181kts
01-Jan-19 15:51 45.744155 -122.546179 285 8007ft 182kts
01-Jan-19 15:52 45.728346 -122.615655 226 7999ft 196kts
01-Jan-19 15:53 45.676300 -122.644499 207 7213ft 202kts
01-Jan-19 15:54 45.629362 -122.677859 201 6420ft 195kts
01-Jan-19 15:55 45.580939 -122.707836 207 5665ft 192kts
01-Jan-19 15:56 45.534764 -122.741252 207 4942ft 186kts
01-Jan-19 15:57 45.489445 -122.772403 206 4238ft 181kts
01-Jan-19 15:58 45.444630 -122.803517 206 3534ft 178kts
01-Jan-19 15:59 45.400679 -122.834345 206 2911ft 171kts
01-Jan-19 16:00 45.359898 -122.862991 206 2896ft 162kts
01-Jan-19 16:01 45.319439 -122.891379 206 2897ft 163kts
01-Jan-19 16:02 45.288235 -122.935002 237 2897ft 162kts
01-Jan-19 16:03 45.260020 -122.987083 229 2438ft 158kts
01-Jan-19 16:04 45.242547 -123.034712 239 1727ft 132kts
01-Jan-19 16:05 45.225682 -123.073134 238 1038ft 106kts
01-Jan-19 16:06 45.210756 -123.106358 236 612ft 90kts
01-Jan-19 16:07 45.198240 -123.133945 240 157ft 73kts
01-Jan-19 16:08 45.197553 -123.138170 276 151ft 8kts
01-Jan-19 16:09 45.198676 -123.138672 60 152ft 0kts
01-Jan-19 16:10 45.198676 -123.138672 60 152ft 0kts

Navigation Log

Ident Type
Flight plan parsing failed, navigation log unavailable